Goshen, UT (84633)

4:13 AM MDT on September 19, 2014 (GMT -0600)
MesoWest Santaquin UT US FGNet | Change Station
CLOSE
Current Station
Personal Weather Station
Location: Santaquin, UT
Elevation: 4899 ft
Nearby Weather Stations

Elev 4899 ft 39.99 °N, 111.78 °W | Updated 53 minutes ago

Partly Cloudy
Partly Cloudy
62 °F
Feels Like 62 °F
N
4
Wind Variable Wind from ESE
Gusts 4.0 mph

Today
High -- | Low -- °F
--% Chance of Precip.
Yesterday
High -- | Low -- °F
Precip. -- in
7:12 AM 7:29 PM
Waning Crescent, 20% visible
Pressure 29.98 in
Visibility 10.0 miles
Clouds Scattered Clouds 9500 ft
Dew Point 52 °F
Humidity 72%
Rainfall -999.00 in
Snow Depth 0 in , 0 in , 0 in
UV 0 out of 12
Pollen 5.30 out of 12
Air Quality Not available.
Flu Activity Not available.
METAR KPVU 190955Z AUTO 14008KT 10SM SCT095 18/13 A2998 RMK AO1 LTG DSNT N

More Conditions Fewer Conditions

Pressure 29.98 in
Visibility 10.0 miles
Clouds Scattered Clouds 9500 ft
Dew Point 52 °F
Humidity 72%
Rainfall -999.00 in
Snow Depth 0 in , 0 in , 0 in
UV 0 out of 12
Pollen 5.30 out of 12
Air Quality Not available.
Flu Activity Not available.
METAR KPVU 190955Z AUTO 14008KT 10SM SCT095 18/13 A2998 RMK AO1 LTG DSNT N

More Conditions Fewer Conditions

10-Day Weather Forecast

Almanac

Astronomy

Sep. 19, 2014 Rise Set
Actual Time 7:12 AM MDT 7:29 PM MDT
Civil Twilight 6:45 AM MDT 7:56 PM MDT
Nautical Twilight 6:13 AM MDT 8:28 PM MDT
Astronomical Twilight 5:41 AM MDT 9:00 PM MDT
Moon 3:01 AM MDT 5:00 PM MDT
Length of Visible Light 13h 11m
Length of Day
12h 17m
Tomorrow will be 2m 35s shorter.
Waning Crescent, 20% of the Moon is Illuminated
Today
Waning Crescent
Sep 24
New
Oct 1
First Quarter
Oct 8
Full
Oct 15
Last Quarter

Today's Extremes

State Highs State Lows

Community

WunderPhotos

Upload Photos

1,754,583 photos uploaded!

Nearby

Snow Depth

Station Depth Elevation
Gooseberry R.S. 0 in 7920 ft
King's Cabin 0 in 8730 ft
Monte Cristo 0 in 8960 ft
Pickle Keg 0 in 9600 ft
Hewinta 0 in 9500 ft

Earthquake Activity

City Distance Mag. Time & Date
No recent earthquake activity has been reported nearby.
Minimum magnitude displayed is 2.5.

Coastal Water Temperatures

Place Temperature
No Stations Reporting

Nearby Weather Stations